Αρχική σελίδα
METAR-TAF:

METAR-TAF

Αεροδρόμια :

Pohnpei, Μικρονησία

γεωγραφικό πλάτος: 06-59N, γεωγραφικό μήκος: 158-12E, υψόμετρο: 2 μ

Παρών καιρός

Η αναφορά έγινε 1 ώρα και 11 λεπτά πριν, στις 23:53 UTC
Άνεμος 5 kt από Β/BA
Θερμοκρασία 31°C
Υγρασία 79%
Πίεση 1011 hPa
Ορατότητα: 24.1 χλμ
Διάσπαρτα νέφη σε ύψος 1800 πόδια
Αρκετά νέφη σε ύψος 13000 πόδια
Αρκετά νέφη σε ύψος 30000 πόδια

METAR: PTPN 142353Z 03005KT 15SM SCT018 BKN130 BKN300 31/27 A2985

Χρόνος: 12:04 (01:04 UTC)

Πρόγνωση Καιρού

Η αναφορά έγινε 1 ώρα και 20 λεπτά πριν, στις 23:44 UTC
Η πρόγνωση ισχύει από τις 15 στις 00 UTC έως τις 15 στις 24 UTC
Άνεμος 6 kt από Α/BA
Ορατότητα: 10 χλμ
Διάσπαρτα νέφη σε ύψος 1800 πόδια
Διάσπαρτα νέφη σε ύψος 12000 πόδια
Όμβροι σε κοντινή απόσταση,

TAF: PTPN 142344Z 1500/1524 07006KT P6SM VCSH SCT018 SCT120

Μετεωρολογικές αναφορές και προγνώσεις για περισσότερα από 4000 αεροδρόμια (δελτία METAR και TAF).

Οι διαθέσιμοι σταθμοί απεικονίζονται στο χάρτη με κίτρινες και κόκκινες κουκκίδες.

Μετακινήστε το ποντίκι πάνω από τις κουκκίδες για να δείτε το όνομα του σταθμού.

Στη συνέχεια, κάντε κλικ για να δείτε τις μετεωρολογικές αναφορές και τις προγνώσεις καιρού.

Για να αλλάξετε το χάρτη: κάντε κλικ στα πράσινα κουμπιά με τον μαύρο σταυρό για να ζουμάρετε, στο πράσινο κουμπί με την παύλα για να αφαιρέσετε το ζουμ ή στα πράσινα βέλη για να αντιπαραβάλλετε χάρτες.


METAR-TAF: